createdAt,value
2022-10-11T00:03:05.192Z,2.40
2022-10-11T00:06:07.768Z,3.08
2022-10-11T00:08:34.980Z,2.55
2022-10-11T00:11:07.430Z,4.18
2022-10-11T00:13:34.816Z,4.05
2022-10-11T00:16:15.290Z,2.70
2022-10-11T00:18:42.240Z,2.85
2022-10-11T00:21:12.002Z,2.30
2022-10-11T00:23:38.880Z,4.70
2022-10-11T00:26:07.873Z,2.40
2022-10-11T00:28:35.399Z,1.95
2022-10-11T00:31:02.654Z,3.30
2022-10-11T00:33:29.436Z,2.20
2022-10-11T00:35:56.254Z,4.20
2022-10-11T00:38:22.847Z,2.90
2022-10-11T00:40:49.391Z,3.63
2022-10-11T00:43:22.515Z,4.70
2022-10-11T00:46:08.932Z,4.53
2022-10-11T00:48:42.629Z,3.88
2022-10-11T00:51:26.387Z,4.43
2022-10-11T00:53:53.485Z,4.57
2022-10-11T00:56:24.752Z,3.97
2022-10-11T00:58:51.888Z,4.43
2022-10-11T01:03:58.771Z,3.10
2022-10-11T01:06:25.230Z,3.45
2022-10-11T01:08:52.101Z,4.28
2022-10-11T01:14:56.125Z,3.85
2022-10-11T01:17:55.816Z,2.90
2022-10-11T01:20:46.384Z,3.47
2022-10-11T01:23:50.428Z,3.00
2022-10-11T01:26:46.242Z,3.95
2022-10-11T01:29:20.727Z,2.97
2022-10-11T01:31:58.614Z,2.05
2022-10-11T01:34:31.052Z,3.20
2022-10-11T01:37:12.800Z,3.70
2022-10-11T01:39:44.149Z,2.40
2022-10-11T01:42:12.312Z,3.70
2022-10-11T01:44:40.527Z,3.08
2022-10-11T01:47:06.966Z,3.10
2022-10-11T01:49:33.696Z,1.92
2022-10-11T01:52:05.116Z,3.97
2022-10-11T01:55:08.228Z,3.85
2022-10-11T01:58:13.463Z,1.90
2022-10-11T02:01:06.491Z,3.95
2022-10-11T02:03:43.864Z,2.53
2022-10-11T02:06:21.345Z,2.03
2022-10-11T02:08:55.051Z,4.05
2022-10-11T02:11:30.802Z,3.45
2022-10-11T02:14:04.967Z,3.78
2022-10-11T02:17:04.413Z,2.15
2022-10-11T02:19:36.025Z,2.53
2022-10-11T02:22:06.457Z,2.65
2022-10-11T02:24:38.154Z,2.70
2022-10-11T02:27:05.386Z,1.88
2022-10-11T02:29:34.922Z,2.75
2022-10-11T02:32:02.000Z,4.07
2022-10-11T02:34:36.294Z,4.10
2022-10-11T02:37:15.718Z,2.50
2022-10-11T02:39:48.721Z,1.80
2022-10-11T02:42:18.629Z,3.70
2022-10-11T02:44:53.565Z,3.20
2022-10-11T02:47:27.644Z,2.60
2022-10-11T02:49:54.324Z,3.88
2022-10-11T02:52:20.988Z,2.40
2022-10-11T02:58:36.625Z,3.63
2022-10-11T03:01:06.168Z,4.00
2022-10-11T03:03:32.880Z,2.50
2022-10-11T03:06:12.108Z,2.03
2022-10-11T03:11:42.505Z,4.07
2022-10-11T03:14:09.370Z,3.78
2022-10-11T03:16:35.876Z,2.30
2022-10-11T03:19:05.185Z,3.45
2022-10-11T03:21:31.710Z,2.20
2022-10-11T03:23:58.709Z,2.70
2022-10-11T03:26:25.276Z,2.50
2022-10-11T03:28:55.207Z,4.30
2022-10-11T03:31:23.596Z,3.90
2022-10-11T03:34:08.555Z,4.03
2022-10-11T03:36:43.837Z,3.38
2022-10-11T03:42:06.260Z,2.63
2022-10-11T03:44:32.800Z,1.92
2022-10-11T03:46:59.285Z,2.00
2022-10-11T03:50:24.959Z,4.05
2022-10-11T03:52:52.778Z,2.85
2022-10-11T03:58:12.009Z,4.15
2022-10-11T04:00:39.599Z,3.10
2022-10-11T04:03:06.054Z,4.03
2022-10-11T04:05:32.561Z,4.50
2022-10-11T04:08:12.002Z,4.32
2022-10-11T04:10:40.016Z,2.33
2022-10-11T04:13:06.683Z,3.95
2022-10-11T04:15:33.788Z,3.83
2022-10-11T04:18:00.282Z,3.72
2022-10-11T04:20:29.533Z,2.90
2022-10-11T04:22:56.120Z,4.32
2022-10-11T04:25:43.282Z,4.70
2022-10-11T04:28:09.819Z,2.88
2022-10-11T04:30:36.354Z,4.78
2022-10-11T04:33:03.003Z,2.40
2022-10-11T04:35:32.220Z,4.32
2022-10-11T04:37:58.791Z,4.22
2022-10-11T04:40:25.197Z,7.53
2022-10-11T04:42:53.663Z,4.32
2022-10-11T04:45:21.274Z,7.63
2022-10-11T04:47:52.639Z,9.13
2022-10-11T04:50:19.361Z,11.05
2022-10-11T04:52:45.794Z,11.43
2022-10-11T04:55:12.437Z,9.55
2022-10-11T04:57:39.478Z,4.95
2022-10-11T05:00:07.231Z,4.45
2022-10-11T05:02:33.813Z,7.68
2022-10-11T05:05:00.396Z,8.25
2022-10-11T05:07:26.878Z,4.50
2022-10-11T05:09:53.317Z,5.55
2022-10-11T05:12:29.880Z,5.75
2022-10-11T05:14:57.785Z,5.25
2022-10-11T05:17:24.810Z,4.60
2022-10-11T05:19:51.250Z,5.63
2022-10-11T05:22:17.872Z,5.15
2022-10-11T05:24:44.290Z,4.60
2022-10-11T05:27:10.713Z,5.25
2022-10-11T05:29:37.501Z,4.93
2022-10-11T05:32:04.274Z,4.68
2022-10-11T05:34:30.728Z,3.92
2022-10-11T05:36:57.347Z,4.15
2022-10-11T05:39:24.419Z,3.45
2022-10-11T05:41:51.912Z,3.20
2022-10-11T05:44:18.436Z,2.97
2022-10-11T05:50:12.126Z,7.75
2022-10-11T05:56:22.193Z,3.65
2022-10-11T05:59:25.928Z,3.78
2022-10-11T06:01:52.414Z,10.98
2022-10-11T06:04:24.156Z,5.95
2022-10-11T06:07:26.127Z,4.30
2022-10-11T06:09:55.092Z,4.75
2022-10-11T06:16:24.540Z,5.03
2022-10-11T06:21:27.980Z,4.53
2022-10-11T06:24:00.823Z,4.63
2022-10-11T06:26:30.476Z,4.80
2022-10-11T06:28:57.368Z,4.75
2022-10-11T06:31:27.150Z,5.88
2022-10-11T06:34:11.555Z,5.28
2022-10-11T06:36:39.951Z,4.95
2022-10-11T06:39:07.544Z,4.68
2022-10-11T06:41:35.906Z,3.55
2022-10-11T06:44:04.846Z,4.78
2022-10-11T06:46:33.192Z,6.05
2022-10-11T06:48:59.753Z,5.97
2022-10-11T06:51:26.303Z,5.32
2022-10-11T06:54:20.870Z,3.40
2022-10-11T06:56:45.799Z,3.05
2022-10-11T06:59:19.388Z,4.82
2022-10-11T07:01:45.847Z,5.47
2022-10-11T07:04:12.305Z,3.30
2022-10-11T07:06:41.046Z,3.85
2022-10-11T07:09:08.450Z,5.40
2022-10-11T07:11:38.152Z,6.05
2022-10-11T07:14:07.762Z,4.03
2022-10-11T07:16:38.799Z,4.93
2022-10-11T07:19:08.292Z,3.97
2022-10-11T07:21:37.601Z,4.72
2022-10-11T07:24:04.419Z,5.28
2022-10-11T07:26:38.610Z,6.45
2022-10-11T07:29:06.945Z,4.05
2022-10-11T07:31:33.497Z,4.32
2022-10-11T07:34:02.486Z,3.92
2022-10-11T07:36:28.924Z,3.08
2022-10-11T07:38:57.881Z,4.03
2022-10-11T07:41:24.569Z,4.50
2022-10-11T07:43:51.328Z,6.30
2022-10-11T07:46:20.862Z,6.38
2022-10-11T07:48:53.008Z,5.10
2022-10-11T07:51:21.302Z,5.43
2022-10-11T07:53:52.960Z,5.75
2022-10-11T07:56:22.080Z,5.10
2022-10-11T07:58:53.287Z,6.30
2022-10-11T08:01:32.584Z,7.20
2022-10-11T08:03:59.299Z,6.70
2022-10-11T08:06:31.515Z,7.18
2022-10-11T08:09:00.498Z,6.65
2022-10-11T08:11:41.811Z,5.85
2022-10-11T08:14:11.256Z,5.00
2022-10-11T08:16:40.789Z,6.57
2022-10-11T08:19:10.753Z,5.28
2022-10-11T08:21:37.469Z,6.90
2022-10-11T08:24:05.230Z,6.35
2022-10-11T08:29:43.410Z,6.10
2022-10-11T08:32:12.285Z,5.82
2022-10-11T08:34:40.988Z,6.30
2022-10-11T08:37:07.521Z,4.95
2022-10-11T08:39:34.128Z,5.63
2022-10-11T08:42:03.925Z,7.05
2022-10-11T08:45:09.450Z,4.97
2022-10-11T08:47:43.435Z,7.03
2022-10-11T08:50:21.516Z,7.05
2022-10-11T08:52:58.981Z,7.32
2022-10-11T08:55:32.146Z,6.80
2022-10-11T08:57:58.972Z,6.70
2022-10-11T09:00:29.012Z,4.97
2022-10-11T09:03:22.433Z,5.65
2022-10-11T09:06:18.823Z,6.97
2022-10-11T09:09:14.547Z,6.30
2022-10-11T09:11:45.805Z,5.72
2022-10-11T09:14:14.744Z,5.50
2022-10-11T09:20:32.206Z,4.82
2022-10-11T09:23:26.252Z,5.70
2022-10-11T09:26:03.281Z,7.03
2022-10-11T09:29:01.534Z,6.03
2022-10-11T09:31:30.548Z,7.13
2022-10-11T09:33:59.513Z,7.22
2022-10-11T09:36:35.869Z,5.00
2022-10-11T09:39:14.674Z,7.65
2022-10-11T09:41:56.627Z,7.50
2022-10-11T09:44:25.854Z,7.57
2022-10-11T09:46:57.360Z,7.78
2022-10-11T09:49:39.810Z,8.35
2022-10-11T09:52:15.906Z,7.65
2022-10-11T09:54:44.912Z,5.60
2022-10-11T09:57:36.557Z,7.38
2022-10-11T10:00:12.187Z,8.02
2022-10-11T10:02:47.096Z,7.97
2022-10-11T10:05:41.187Z,6.05
2022-10-11T10:08:11.793Z,6.20
2022-10-11T10:10:48.536Z,6.07
2022-10-11T10:13:25.538Z,7.93
2022-10-11T10:16:04.135Z,5.82
2022-10-11T10:18:37.081Z,6.10
2022-10-11T10:21:05.123Z,7.22
2022-10-11T10:23:34.832Z,6.00
2022-10-11T10:26:24.143Z,5.65
2022-10-11T10:29:08.593Z,5.03
2022-10-11T10:32:13.374Z,5.55
2022-10-11T10:35:03.861Z,7.70
2022-10-11T10:37:35.391Z,8.25
2022-10-11T10:40:40.737Z,6.63
2022-10-11T10:43:15.613Z,7.22
2022-10-11T10:46:01.072Z,5.25
2022-10-11T10:49:02.061Z,4.75
2022-10-11T10:51:33.383Z,6.80
2022-10-11T10:54:05.960Z,5.38
2022-10-11T10:56:45.953Z,5.57
2022-10-11T10:59:40.710Z,6.75
2022-10-11T11:02:39.670Z,5.60
2022-10-11T11:05:30.683Z,5.25
2022-10-11T11:08:27.840Z,6.18
2022-10-11T11:10:59.872Z,4.30
2022-10-11T11:13:45.282Z,4.70
2022-10-11T11:16:44.761Z,5.28
2022-10-11T11:19:29.044Z,4.70
2022-10-11T11:22:23.631Z,4.00
2022-10-11T11:25:14.544Z,5.53
2022-10-11T11:27:56.431Z,7.47
2022-10-11T11:30:36.297Z,5.97
2022-10-11T11:33:21.877Z,6.00
2022-10-11T11:35:52.733Z,4.68
2022-10-11T11:38:43.484Z,5.07
2022-10-11T11:41:24.475Z,4.47
2022-10-11T11:43:56.282Z,6.28
2022-10-11T11:46:38.372Z,4.15
2022-10-11T11:49:22.254Z,5.70
2022-10-11T11:51:49.673Z,5.85
2022-10-11T11:54:34.515Z,6.80
2022-10-11T11:57:06.964Z,3.88
2022-10-11T11:59:39.577Z,4.35
2022-10-11T12:02:30.396Z,5.50
2022-10-11T12:04:57.922Z,7.15
2022-10-11T12:07:48.417Z,7.63
2022-10-11T12:10:33.790Z,7.88
2022-10-11T12:17:16.339Z,5.30
2022-10-11T12:20:11.319Z,5.18
2022-10-11T12:22:53.423Z,7.03
2022-10-11T12:25:24.094Z,5.20
2022-10-11T12:27:53.079Z,4.63
2022-10-11T12:31:04.097Z,5.35
2022-10-11T12:34:12.497Z,6.68
2022-10-11T12:36:44.124Z,5.13
2022-10-11T12:39:19.926Z,5.88
2022-10-11T12:41:55.706Z,6.57
2022-10-11T12:49:01.135Z,4.97
2022-10-11T12:51:38.020Z,4.60
2022-10-11T12:54:31.056Z,6.95
2022-10-11T12:57:28.967Z,7.78
2022-10-11T13:00:12.150Z,5.00
2022-10-11T13:02:44.716Z,4.70
2022-10-11T13:05:25.459Z,5.20
2022-10-11T13:07:56.807Z,4.90
2022-10-11T13:13:58.927Z,6.63
2022-10-11T13:16:30.769Z,4.30
2022-10-11T13:18:59.798Z,4.43
2022-10-11T13:21:36.212Z,6.63
2022-10-11T13:24:15.808Z,7.57
2022-10-11T13:26:52.636Z,4.88
2022-10-11T13:29:36.603Z,4.90
2022-10-11T13:32:58.813Z,5.95
2022-10-11T13:35:33.786Z,4.65
2022-10-11T13:38:01.931Z,5.30
2022-10-11T13:40:29.881Z,3.90
2022-10-11T13:42:56.626Z,4.93
2022-10-11T13:45:35.019Z,5.78
2022-10-11T13:48:01.782Z,4.35
2022-10-11T13:50:40.509Z,4.03
2022-10-11T13:53:07.010Z,5.13
2022-10-11T13:55:36.363Z,5.70
2022-10-11T13:58:12.795Z,3.50
2022-10-11T14:00:55.569Z,4.00
2022-10-11T14:03:43.838Z,4.10
2022-10-11T14:06:10.542Z,4.72
2022-10-11T14:08:51.695Z,4.60
2022-10-11T14:11:50.620Z,5.55
2022-10-11T14:14:35.754Z,4.05
2022-10-11T14:17:13.043Z,3.63
2022-10-11T14:19:39.913Z,3.50
2022-10-11T14:22:07.316Z,5.90
2022-10-11T14:24:33.788Z,4.40
2022-10-11T14:27:05.469Z,5.43
2022-10-11T14:29:36.158Z,3.33
2022-10-11T14:32:08.451Z,5.05
2022-10-11T14:34:35.274Z,3.05
2022-10-11T14:37:01.938Z,3.13
2022-10-11T14:39:30.631Z,5.68
2022-10-11T14:41:57.286Z,5.72
2022-10-11T14:44:24.139Z,6.88
2022-10-11T14:46:54.549Z,3.47
2022-10-11T14:49:27.498Z,5.88
2022-10-11T14:51:55.595Z,4.20
2022-10-11T14:54:23.774Z,6.18
2022-10-11T14:56:51.747Z,4.55
2022-10-11T14:59:21.277Z,5.50
2022-10-11T15:01:53.458Z,5.57
2022-10-11T15:04:25.808Z,5.75
2022-10-11T15:06:54.291Z,5.03
2022-10-11T15:09:21.508Z,4.20
2022-10-11T15:11:49.392Z,4.40
2022-10-11T15:14:16.127Z,5.38
2022-10-11T15:16:42.669Z,4.13
2022-10-11T15:19:18.099Z,4.57
2022-10-11T15:21:45.024Z,2.75
2022-10-11T15:24:12.068Z,4.68
2022-10-11T15:26:38.660Z,3.30
2022-10-11T15:29:06.403Z,4.68
2022-10-11T15:31:32.850Z,4.05
2022-10-11T15:34:01.639Z,5.30
2022-10-11T15:36:28.705Z,3.45
2022-10-11T15:38:55.685Z,3.75
2022-10-11T15:41:23.820Z,3.78
2022-10-11T15:43:50.772Z,3.15
2022-10-11T15:46:22.500Z,3.85
2022-10-11T15:48:50.247Z,2.25
2022-10-11T15:51:17.429Z,3.20
2022-10-11T15:53:44.220Z,3.30
2022-10-11T15:56:15.182Z,2.83
2022-10-11T15:58:41.631Z,3.38
2022-10-11T16:01:27.229Z,3.55
2022-10-11T16:03:53.919Z,3.47
2022-10-11T16:09:32.898Z,3.20
2022-10-11T16:11:59.550Z,3.75
2022-10-11T16:14:26.205Z,2.83
2022-10-11T16:16:53.063Z,3.42
2022-10-11T16:19:19.547Z,3.35
2022-10-11T16:21:48.091Z,3.63
2022-10-11T16:24:14.583Z,3.60
2022-10-11T16:26:41.890Z,2.60
2022-10-11T16:29:08.323Z,3.17
2022-10-11T16:31:38.331Z,2.67
2022-10-11T16:34:04.883Z,2.83
2022-10-11T16:36:33.346Z,2.95
2022-10-11T16:39:00.803Z,2.45
2022-10-11T16:41:27.859Z,2.90
2022-10-11T16:43:55.037Z,3.70
2022-10-11T16:46:22.271Z,2.47
2022-10-11T16:48:49.076Z,3.50
2022-10-11T16:51:16.096Z,3.10
2022-10-11T16:53:45.471Z,2.53
2022-10-11T16:56:12.235Z,2.80
2022-10-11T16:58:38.770Z,2.38
2022-10-11T17:01:10.886Z,2.80
2022-10-11T17:03:37.940Z,3.60
2022-10-11T17:06:05.776Z,3.72
2022-10-11T17:08:32.441Z,4.28
2022-10-11T17:10:58.995Z,4.05
2022-10-11T17:13:25.467Z,2.05
2022-10-11T17:15:52.117Z,3.35
2022-10-11T17:18:18.739Z,3.22
2022-10-11T17:20:45.377Z,3.28
2022-10-11T17:23:11.811Z,2.92
2022-10-11T17:25:46.114Z,2.38
2022-10-11T17:28:13.205Z,3.00
2022-10-11T17:30:43.181Z,3.88
2022-10-11T17:33:14.757Z,3.05
2022-10-11T17:35:41.290Z,2.90
2022-10-11T17:38:07.741Z,2.33
2022-10-11T17:40:34.294Z,2.97
2022-10-11T17:43:00.747Z,2.97
2022-10-11T17:45:27.234Z,2.83
2022-10-11T17:47:54.049Z,3.70
2022-10-11T17:50:20.534Z,3.28
2022-10-11T17:52:47.321Z,2.67
2022-10-11T17:55:15.700Z,3.50
2022-10-11T17:57:43.963Z,2.30
2022-10-11T18:00:10.919Z,3.20
2022-10-11T18:02:40.121Z,3.13
2022-10-11T18:05:07.639Z,3.83
2022-10-11T18:08:03.804Z,3.33
2022-10-11T18:10:33.128Z,2.65
2022-10-11T18:13:04.328Z,2.70
2022-10-11T18:15:33.110Z,3.83
2022-10-11T18:17:59.980Z,2.22
2022-10-11T18:20:26.935Z,4.32
2022-10-11T18:22:54.161Z,2.40
2022-10-11T18:25:20.642Z,2.20
2022-10-11T18:27:47.037Z,4.10
2022-10-11T18:30:14.727Z,2.92
2022-10-11T18:32:41.149Z,4.57
2022-10-11T18:35:07.875Z,3.85
2022-10-11T18:37:34.400Z,4.00
2022-10-11T18:40:01.066Z,3.97
2022-10-11T18:42:27.511Z,3.05
2022-10-11T18:44:54.628Z,4.57
2022-10-11T18:47:21.660Z,4.22
2022-10-11T18:49:54.048Z,3.45
2022-10-11T18:57:25.061Z,3.78
2022-10-11T18:59:51.590Z,3.40
2022-10-11T19:02:18.156Z,3.97
2022-10-11T19:05:20.905Z,5.95
2022-10-11T19:07:47.446Z,3.55
2022-10-11T19:10:55.651Z,5.50
2022-10-11T19:13:22.238Z,6.05
2022-10-11T19:18:34.696Z,5.20
2022-10-11T19:21:26.549Z,3.60
2022-10-11T19:23:57.726Z,3.78
2022-10-11T19:26:31.354Z,4.10
2022-10-11T19:31:34.061Z,5.55
2022-10-11T19:34:00.781Z,5.72
2022-10-11T19:36:27.489Z,6.35
2022-10-11T19:38:56.912Z,6.20
2022-10-11T19:41:30.337Z,6.35
2022-10-11T19:44:00.985Z,5.65
2022-10-11T19:46:49.906Z,5.72
2022-10-11T19:54:50.929Z,4.80
2022-10-11T19:57:17.483Z,4.30
2022-10-11T19:59:44.783Z,5.38
2022-10-11T20:02:12.844Z,5.60
2022-10-11T20:04:51.975Z,4.65
2022-10-11T20:07:18.777Z,3.95
2022-10-11T20:09:45.200Z,5.45
2022-10-11T20:12:11.753Z,5.68
2022-10-11T20:14:38.234Z,3.38
2022-10-11T20:17:04.677Z,4.97
2022-10-11T20:19:31.743Z,4.80
2022-10-11T20:22:29.695Z,3.92
2022-10-11T20:24:56.591Z,3.72
2022-10-11T20:27:23.020Z,4.72
2022-10-11T20:29:50.038Z,4.72
2022-10-11T20:32:16.878Z,5.32
2022-10-11T20:34:43.302Z,3.42
2022-10-11T20:37:09.778Z,3.65
2022-10-11T20:39:39.051Z,4.95
2022-10-11T20:42:05.468Z,5.07
2022-10-11T20:44:31.922Z,4.82
2022-10-11T20:47:03.732Z,6.20
2022-10-11T20:49:30.610Z,4.97
2022-10-11T20:51:57.137Z,5.93
2022-10-11T20:54:25.037Z,6.22
2022-10-11T20:56:51.739Z,3.65
2022-10-11T20:59:53.633Z,4.20
2022-10-11T21:02:26.410Z,6.18
2022-10-11T21:04:53.091Z,5.10
2022-10-11T21:07:19.481Z,3.85
2022-10-11T21:09:45.905Z,4.00
2022-10-11T21:12:12.311Z,4.38
2022-10-11T21:14:38.689Z,4.13
2022-10-11T21:17:05.217Z,3.22
2022-10-11T21:19:31.768Z,4.00
2022-10-11T21:21:58.307Z,4.93
2022-10-11T21:24:24.942Z,3.10
2022-10-11T21:26:58.155Z,5.38
2022-10-11T21:29:26.865Z,5.32
2022-10-11T21:31:54.052Z,5.95
2022-10-11T21:34:20.463Z,4.82
2022-10-11T21:36:46.911Z,6.28
2022-10-11T21:39:13.340Z,5.35
2022-10-11T21:41:42.055Z,5.43
2022-10-11T21:44:09.497Z,6.85
2022-10-11T21:47:01.717Z,4.90
2022-10-11T21:49:23.328Z,5.50
2022-10-11T21:51:49.869Z,6.40
2022-10-11T21:54:16.754Z,4.07
2022-10-11T21:56:45.732Z,4.05
2022-10-11T21:59:12.737Z,5.18
2022-10-11T22:01:40.472Z,4.75
2022-10-11T22:04:07.598Z,5.93
2022-10-11T22:06:34.527Z,4.30
2022-10-11T22:09:01.965Z,3.67
2022-10-11T22:11:28.364Z,4.50
2022-10-11T22:13:54.830Z,5.82
2022-10-11T22:16:21.629Z,5.22
2022-10-11T22:18:48.150Z,6.03
2022-10-11T22:21:19.772Z,4.10
2022-10-11T22:23:51.471Z,5.85
2022-10-11T22:26:27.062Z,4.97
2022-10-11T22:28:53.939Z,2.85
2022-10-11T22:31:21.300Z,3.40
2022-10-11T22:33:50.106Z,3.75
2022-10-11T22:36:18.867Z,3.90
2022-10-11T22:42:39.120Z,3.60
2022-10-11T22:45:08.460Z,3.03
2022-10-11T22:47:35.369Z,5.28
2022-10-11T22:50:02.773Z,2.42
2022-10-11T22:52:29.328Z,3.38
2022-10-11T22:54:56.179Z,4.15
2022-10-11T22:57:22.905Z,3.63
2022-10-11T22:59:49.417Z,3.97
2022-10-11T23:02:15.974Z,3.65
2022-10-11T23:04:42.398Z,3.70
2022-10-11T23:07:08.848Z,4.65
2022-10-11T23:09:35.310Z,4.97
2022-10-11T23:12:06.949Z,4.88
2022-10-11T23:14:33.413Z,3.00
2022-10-11T23:16:59.915Z,2.67
2022-10-11T23:19:26.417Z,4.03
2022-10-11T23:21:55.957Z,3.75
2022-10-11T23:24:22.481Z,3.72
2022-10-11T23:26:50.143Z,5.70
2022-10-11T23:29:16.786Z,4.78
2022-10-11T23:31:43.327Z,3.90
2022-10-11T23:34:09.888Z,4.78
2022-10-11T23:36:42.261Z,4.00
2022-10-11T23:39:11.815Z,4.93
2022-10-11T23:41:38.371Z,4.47
2022-10-11T23:44:07.468Z,4.75
2022-10-11T23:46:37.479Z,3.88
2022-10-11T23:49:04.908Z,3.40
2022-10-11T23:51:31.657Z,4.07
2022-10-11T23:53:58.307Z,5.03
2022-10-11T23:56:24.907Z,4.35
2022-10-11T23:58:53.605Z,5.38
